sensor_id;sensor_type;location;lat;lon;timestamp;pressure;altitude;pressure_sealevel;temperature;humidity
57000;BME280;42891;50.006;21.964;2022-09-17T00:00:46;97968.44;;;12.89;83.92
57000;BME280;42891;50.006;21.964;2022-09-17T00:04:48;97990.34;;;12.83;84.47
57000;BME280;42891;50.006;21.964;2022-09-17T00:08:48;97992.59;;;12.94;84.16
57000;BME280;42891;50.006;21.964;2022-09-17T00:12:48;97982.03;;;12.86;83.83
57000;BME280;42891;50.006;21.964;2022-09-17T00:16:49;97984.88;;;12.85;83.88
57000;BME280;42891;50.006;21.964;2022-09-17T00:20:49;97977.66;;;12.78;84.02
57000;BME280;42891;50.006;21.964;2022-09-17T00:24:49;97983.88;;;12.86;83.84
57000;BME280;42891;50.006;21.964;2022-09-17T00:28:52;97974.81;;;12.80;84.33
57000;BME280;42891;50.006;21.964;2022-09-17T00:32:52;97991.22;;;12.75;84.44
57000;BME280;42891;50.006;21.964;2022-09-17T00:36:53;98004.53;;;12.90;84.39
57000;BME280;42891;50.006;21.964;2022-09-17T00:40:53;97994.47;;;12.86;84.25
57000;BME280;42891;50.006;21.964;2022-09-17T00:44:55;97996.22;;;12.93;84.20
57000;BME280;42891;50.006;21.964;2022-09-17T00:48:58;97990.00;;;12.86;83.65
57000;BME280;42891;50.006;21.964;2022-09-17T00:57:12;97983.22;;;12.84;84.03
57000;BME280;42891;50.006;21.964;2022-09-17T01:01:13;97939.34;;;12.58;83.90
57000;BME280;42891;50.006;21.964;2022-09-17T01:05:15;97975.44;;;12.82;83.35
57000;BME280;42891;50.006;21.964;2022-09-17T01:09:40;97975.81;;;12.79;83.46
57000;BME280;42891;50.006;21.964;2022-09-17T01:30:36;97993.19;;;12.82;83.34
57000;BME280;42891;50.006;21.964;2022-09-17T01:35:00;97992.91;;;12.68;82.36
57000;BME280;42891;50.006;21.964;2022-09-17T01:39:26;97998.22;;;12.68;82.58
57000;BME280;42891;50.006;21.964;2022-09-17T01:43:35;97964.81;;;12.59;82.31
57000;BME280;42891;50.006;21.964;2022-09-17T01:51:46;97982.75;;;12.49;82.45
57000;BME280;42891;50.006;21.964;2022-09-17T01:55:49;97961.97;;;12.37;82.78
57000;BME280;42891;50.006;21.964;2022-09-17T02:00:11;97984.09;;;12.44;82.50
57000;BME280;42891;50.006;21.964;2022-09-17T02:04:21;97965.63;;;12.28;82.75
57000;BME280;42891;50.006;21.964;2022-09-17T02:08:25;97996.19;;;12.39;82.90
57000;BME280;42891;50.006;21.964;2022-09-17T02:12:36;97994.31;;;12.16;83.66
57000;BME280;42891;50.006;21.964;2022-09-17T02:16:53;97990.78;;;12.32;83.06
57000;BME280;42891;50.006;21.964;2022-09-17T02:21:01;97999.19;;;12.36;82.69
57000;BME280;42891;50.006;21.964;2022-09-17T02:25:07;97960.38;;;12.20;83.12
57000;BME280;42891;50.006;21.964;2022-09-17T02:29:18;97977.00;;;12.37;83.28
57000;BME280;42891;50.006;21.964;2022-09-17T02:33:22;97959.38;;;12.21;82.85
57000;BME280;42891;50.006;21.964;2022-09-17T02:37:24;97970.94;;;12.28;82.97
57000;BME280;42891;50.006;21.964;2022-09-17T02:41:33;97934.47;;;12.07;82.76
57000;BME280;42891;50.006;21.964;2022-09-17T02:50:01;97964.34;;;12.24;82.32
57000;BME280;42891;50.006;21.964;2022-09-17T03:02:25;97971.69;;;12.05;82.38
57000;BME280;42891;50.006;21.964;2022-09-17T03:06:28;97947.91;;;11.89;82.88
57000;BME280;42891;50.006;21.964;2022-09-17T03:10:29;97965.44;;;11.98;83.02
57000;BME280;42891;50.006;21.964;2022-09-17T03:14:32;97968.91;;;11.99;82.62
57000;BME280;42891;50.006;21.964;2022-09-17T03:18:32;97951.84;;;11.93;82.49
57000;BME280;42891;50.006;21.964;2022-09-17T03:22:33;97962.97;;;11.97;82.17
57000;BME280;42891;50.006;21.964;2022-09-17T03:26:34;97960.97;;;11.99;82.06
57000;BME280;42891;50.006;21.964;2022-09-17T03:30:35;97961.31;;;11.87;81.93
57000;BME280;42891;50.006;21.964;2022-09-17T03:34:35;97970.88;;;11.88;82.48
57000;BME280;42891;50.006;21.964;2022-09-17T03:38:35;97991.06;;;11.81;83.06
57000;BME280;42891;50.006;21.964;2022-09-17T03:42:37;97976.88;;;11.66;83.93
57000;BME280;42891;50.006;21.964;2022-09-17T03:46:37;97977.03;;;11.72;83.92
57000;BME280;42891;50.006;21.964;2022-09-17T03:50:38;97980.03;;;11.69;84.16
57000;BME280;42891;50.006;21.964;2022-09-17T03:54:38;97969.63;;;11.68;84.00
57000;BME280;42891;50.006;21.964;2022-09-17T03:58:38;97968.75;;;11.67;83.80
57000;BME280;42891;50.006;21.964;2022-09-17T04:02:39;97964.66;;;11.65;83.45
57000;BME280;42891;50.006;21.964;2022-09-17T04:06:39;97966.81;;;11.61;83.74
57000;BME280;42891;50.006;21.964;2022-09-17T04:10:39;97954.75;;;11.50;83.60
57000;BME280;42891;50.006;21.964;2022-09-17T04:14:40;97962.84;;;11.65;83.38
57000;BME280;42891;50.006;21.964;2022-09-17T04:18:40;97967.78;;;11.68;83.32
57000;BME280;42891;50.006;21.964;2022-09-17T04:22:40;97951.28;;;11.66;83.14
57000;BME280;42891;50.006;21.964;2022-09-17T04:26:41;97960.53;;;11.62;82.72
57000;BME280;42891;50.006;21.964;2022-09-17T04:30:41;97953.44;;;11.54;83.14
57000;BME280;42891;50.006;21.964;2022-09-17T04:34:44;97954.41;;;11.53;83.30
57000;BME280;42891;50.006;21.964;2022-09-17T04:38:47;97957.22;;;11.52;83.58
57000;BME280;42891;50.006;21.964;2022-09-17T04:42:51;97955.91;;;11.56;83.35
57000;BME280;42891;50.006;21.964;2022-09-17T04:46:51;97939.59;;;11.44;83.20
57000;BME280;42891;50.006;21.964;2022-09-17T04:50:52;97943.53;;;11.48;83.60
57000;BME280;42891;50.006;21.964;2022-09-17T04:54:52;97951.59;;;11.55;83.71
57000;BME280;42891;50.006;21.964;2022-09-17T04:58:52;97952.09;;;11.58;83.80
57000;BME280;42891;50.006;21.964;2022-09-17T05:02:54;97941.53;;;11.58;84.01
57000;BME280;42891;50.006;21.964;2022-09-17T05:06:54;97938.44;;;11.47;83.90
57000;BME280;42891;50.006;21.964;2022-09-17T05:10:54;97950.44;;;11.57;84.10
57000;BME280;42891;50.006;21.964;2022-09-17T05:14:55;97955.25;;;11.62;84.64
57000;BME280;42891;50.006;21.964;2022-09-17T05:18:55;97964.66;;;11.65;84.83
57000;BME280;42891;50.006;21.964;2022-09-17T05:22:56;97969.44;;;11.61;85.24
57000;BME280;42891;50.006;21.964;2022-09-17T05:26:57;97950.63;;;11.56;85.12
57000;BME280;42891;50.006;21.964;2022-09-17T05:30:58;97963.00;;;11.72;85.18
57000;BME280;42891;50.006;21.964;2022-09-17T05:34:58;97969.28;;;11.63;85.66
57000;BME280;42891;50.006;21.964;2022-09-17T05:38:59;97952.25;;;11.65;86.37
57000;BME280;42891;50.006;21.964;2022-09-17T05:43:04;97941.34;;;11.68;86.41
57000;BME280;42891;50.006;21.964;2022-09-17T05:47:04;97942.31;;;11.67;86.34
57000;BME280;42891;50.006;21.964;2022-09-17T05:51:05;97953.06;;;11.74;87.03
57000;BME280;42891;50.006;21.964;2022-09-17T05:55:05;97951.75;;;11.70;87.03
57000;BME280;42891;50.006;21.964;2022-09-17T05:59:06;97962.66;;;11.75;87.06
57000;BME280;42891;50.006;21.964;2022-09-17T06:03:10;97964.78;;;11.71;86.99
57000;BME280;42891;50.006;21.964;2022-09-17T06:07:11;97963.47;;;11.75;87.00
57000;BME280;42891;50.006;21.964;2022-09-17T06:11:11;97959.47;;;11.80;87.94
57000;BME280;42891;50.006;21.964;2022-09-17T06:15:12;97970.72;;;11.90;86.97
57000;BME280;42891;50.006;21.964;2022-09-17T06:19:13;97973.19;;;11.91;87.60
57000;BME280;42891;50.006;21.964;2022-09-17T06:23:14;97972.22;;;12.01;88.54
57000;BME280;42891;50.006;21.964;2022-09-17T06:27:14;97968.53;;;12.10;87.84
57000;BME280;42891;50.006;21.964;2022-09-17T06:31:14;97982.28;;;12.05;85.10
57000;BME280;42891;50.006;21.964;2022-09-17T06:35:15;97979.94;;;12.10;85.19
57000;BME280;42891;50.006;21.964;2022-09-17T06:39:15;97965.31;;;12.23;84.91
57000;BME280;42891;50.006;21.964;2022-09-17T06:43:16;97973.94;;;12.25;86.08
57000;BME280;42891;50.006;21.964;2022-09-17T06:47:17;97976.72;;;12.32;85.21
57000;BME280;42891;50.006;21.964;2022-09-17T06:51:17;97966.59;;;12.35;84.88
57000;BME280;42891;50.006;21.964;2022-09-17T06:55:18;97985.06;;;12.52;84.39
57000;BME280;42891;50.006;21.964;2022-09-17T06:59:18;97975.63;;;12.49;84.17
57000;BME280;42891;50.006;21.964;2022-09-17T07:03:18;97961.50;;;12.65;84.33
57000;BME280;42891;50.006;21.964;2022-09-17T07:07:19;97979.13;;;12.73;84.48
57000;BME280;42891;50.006;21.964;2022-09-17T07:11:20;97984.88;;;12.85;83.72
57000;BME280;42891;50.006;21.964;2022-09-17T07:15:21;97974.47;;;12.83;82.63
57000;BME280;42891;50.006;21.964;2022-09-17T07:19:21;97968.63;;;12.88;82.77
57000;BME280;42891;50.006;21.964;2022-09-17T07:23:23;97987.66;;;12.91;82.40
57000;BME280;42891;50.006;21.964;2022-09-17T07:27:26;97967.75;;;12.95;83.20
57000;BME280;42891;50.006;21.964;2022-09-17T07:31:26;97970.63;;;13.09;81.15
57000;BME280;42891;50.006;21.964;2022-09-17T07:35:27;97960.84;;;13.09;81.64
57000;BME280;42891;50.006;21.964;2022-09-17T07:39:27;97973.75;;;13.12;80.03
57000;BME280;42891;50.006;21.964;2022-09-17T07:43:30;97982.44;;;13.21;80.26
57000;BME280;42891;50.006;21.964;2022-09-17T07:47:31;97978.34;;;13.19;78.61
57000;BME280;42891;50.006;21.964;2022-09-17T07:51:32;97986.88;;;13.29;78.19
57000;BME280;42891;50.006;21.964;2022-09-17T07:55:32;97965.31;;;13.32;77.59
57000;BME280;42891;50.006;21.964;2022-09-17T07:59:32;97967.91;;;13.40;77.11
57000;BME280;42891;50.006;21.964;2022-09-17T08:03:34;97978.28;;;13.50;76.40
57000;BME280;42891;50.006;21.964;2022-09-17T08:07:34;97959.97;;;13.40;74.55
57000;BME280;42891;50.006;21.964;2022-09-17T08:11:35;97989.00;;;13.57;74.65
57000;BME280;42891;50.006;21.964;2022-09-17T08:15:35;97971.28;;;13.72;75.12
57000;BME280;42891;50.006;21.964;2022-09-17T08:19:35;97977.16;;;13.83;74.75
57000;BME280;42891;50.006;21.964;2022-09-17T08:23:37;97986.38;;;13.87;74.82
57000;BME280;42891;50.006;21.964;2022-09-17T08:27:37;97974.75;;;13.88;73.82
57000;BME280;42891;50.006;21.964;2022-09-17T08:31:38;97980.44;;;13.85;73.65
57000;BME280;42891;50.006;21.964;2022-09-17T08:35:38;97979.34;;;13.94;73.85
57000;BME280;42891;50.006;21.964;2022-09-17T08:39:39;97985.66;;;13.93;72.03
57000;BME280;42891;50.006;21.964;2022-09-17T08:48:10;97942.72;;;14.04;71.08
57000;BME280;42891;50.006;21.964;2022-09-17T08:56:18;97959.25;;;14.36;68.73
57000;BME280;42891;50.006;21.964;2022-09-17T09:00:20;97926.22;;;14.24;68.72
57000;BME280;42891;50.006;21.964;2022-09-17T09:08:43;97957.41;;;14.52;66.37
57000;BME280;42891;50.006;21.964;2022-09-17T09:12:45;97974.63;;;14.71;66.91
57000;BME280;42891;50.006;21.964;2022-09-17T09:16:48;97962.59;;;14.75;67.00
57000;BME280;42891;50.006;21.964;2022-09-17T09:20:53;97955.31;;;14.83;66.30
57000;BME280;42891;50.006;21.964;2022-09-17T09:25:20;97961.59;;;14.97;67.32
57000;BME280;42891;50.006;21.964;2022-09-17T09:33:30;97910.25;;;14.75;65.21
57000;BME280;42891;50.006;21.964;2022-09-17T09:37:33;97940.66;;;15.09;66.24
57000;BME280;42891;50.006;21.964;2022-09-17T09:41:57;97940.25;;;15.12;65.60
57000;BME280;42891;50.006;21.964;2022-09-17T09:46:28;97949.97;;;15.20;65.70
57000;BME280;42891;50.006;21.964;2022-09-17T09:59:34;97916.34;;;15.41;64.37
57000;BME280;42891;50.006;21.964;2022-09-17T10:03:39;97910.75;;;15.29;62.21
57000;BME280;42891;50.006;21.964;2022-09-17T10:07:44;97935.50;;;15.29;61.19
57000;BME280;42891;50.006;21.964;2022-09-17T10:11:59;97952.16;;;15.38;61.47
57000;BME280;42891;50.006;21.964;2022-09-17T10:20:18;97915.81;;;15.24;62.67
57000;BME280;42891;50.006;21.964;2022-09-17T10:24:22;97932.56;;;15.46;62.73
57000;BME280;42891;50.006;21.964;2022-09-17T10:28:54;97912.28;;;15.45;62.92
57000;BME280;42891;50.006;21.964;2022-09-17T10:37:47;97936.34;;;15.93;62.52
57000;BME280;42891;50.006;21.964;2022-09-17T10:46:08;97941.53;;;16.01;60.42
57000;BME280;42891;50.006;21.964;2022-09-17T10:54:28;97943.78;;;15.98;59.21
57000;BME280;42891;50.006;21.964;2022-09-17T11:03:45;97957.28;;;15.96;59.35
57000;BME280;42891;50.006;21.964;2022-09-17T11:17:05;97948.84;;;15.93;61.06
57000;BME280;42891;50.006;21.964;2022-09-17T11:25:45;97943.97;;;15.68;61.81
57000;BME280;42891;50.006;21.964;2022-09-17T11:29:59;97952.00;;;15.75;61.82
57000;BME280;42891;50.006;21.964;2022-09-17T11:34:10;97953.44;;;15.77;60.89
57000;BME280;42891;50.006;21.964;2022-09-17T11:38:24;97922.28;;;15.71;60.53
57000;BME280;42891;50.006;21.964;2022-09-17T11:46:44;97944.94;;;15.60;57.87
57000;BME280;42891;50.006;21.964;2022-09-17T11:50:52;97944.78;;;15.68;59.45
57000;BME280;42891;50.006;21.964;2022-09-17T11:55:06;97948.00;;;15.85;59.27
57000;BME280;42891;50.006;21.964;2022-09-17T11:59:39;97952.28;;;15.87;59.10
57000;BME280;42891;50.006;21.964;2022-09-17T12:04:36;97942.16;;;15.75;60.39
57000;BME280;42891;50.006;21.964;2022-09-17T12:08:17;97919.59;;;15.64;59.75
57000;BME280;42891;50.006;21.964;2022-09-17T12:12:21;97915.75;;;15.74;57.53
57000;BME280;42891;50.006;21.964;2022-09-17T12:16:25;97930.22;;;15.93;56.77
57000;BME280;42891;50.006;21.964;2022-09-17T12:20:30;97893.03;;;15.78;58.14
57000;BME280;42891;50.006;21.964;2022-09-17T12:24:34;97910.38;;;15.95;58.75
57000;BME280;42891;50.006;21.964;2022-09-17T12:33:22;97919.78;;;15.91;59.56
57000;BME280;42891;50.006;21.964;2022-09-17T12:51:13;97908.31;;;15.97;56.18
57000;BME280;42891;50.006;21.964;2022-09-17T12:55:35;97906.25;;;15.93;56.09
57000;BME280;42891;50.006;21.964;2022-09-17T12:59:50;97905.47;;;15.99;57.43
57000;BME280;42891;50.006;21.964;2022-09-17T13:04:06;97878.19;;;15.90;57.45
57000;BME280;42891;50.006;21.964;2022-09-17T13:21:45;97870.84;;;15.99;57.58
57000;BME280;42891;50.006;21.964;2022-09-17T13:25:50;97870.03;;;15.98;56.17
57000;BME280;42891;50.006;21.964;2022-09-17T13:33:59;97821.38;;;15.76;57.57
57000;BME280;42891;50.006;21.964;2022-09-17T13:38:00;97845.06;;;15.99;59.28
57000;BME280;42891;50.006;21.964;2022-09-17T13:42:27;97846.91;;;16.06;58.18
57000;BME280;42891;50.006;21.964;2022-09-17T13:46:28;97830.50;;;15.95;57.97
57000;BME280;42891;50.006;21.964;2022-09-17T13:50:39;97826.25;;;16.08;59.30
57000;BME280;42891;50.006;21.964;2022-09-17T13:54:40;97839.78;;;16.06;58.17
57000;BME280;42891;50.006;21.964;2022-09-17T13:58:41;97838.91;;;15.99;58.00
57000;BME280;42891;50.006;21.964;2022-09-17T14:02:41;97852.47;;;16.11;57.48
57000;BME280;42891;50.006;21.964;2022-09-17T14:06:47;97839.56;;;16.08;56.67
57000;BME280;42891;50.006;21.964;2022-09-17T14:10:50;97848.56;;;16.07;57.83
57000;BME280;42891;50.006;21.964;2022-09-17T14:14:51;97853.88;;;16.00;57.04
57000;BME280;42891;50.006;21.964;2022-09-17T14:19:01;97854.09;;;16.05;58.04
57000;BME280;42891;50.006;21.964;2022-09-17T14:23:02;97838.28;;;15.97;57.05
57000;BME280;42891;50.006;21.964;2022-09-17T14:31:16;97826.81;;;15.90;58.75
57000;BME280;42891;50.006;21.964;2022-09-17T14:35:48;97835.63;;;15.97;59.76
57000;BME280;42891;50.006;21.964;2022-09-17T14:39:50;97813.28;;;15.91;60.05
57000;BME280;42891;50.006;21.964;2022-09-17T14:48:25;97816.75;;;15.85;58.81
57000;BME280;42891;50.006;21.964;2022-09-17T14:52:27;97806.06;;;15.78;59.19
57000;BME280;42891;50.006;21.964;2022-09-17T14:56:30;97802.97;;;15.75;59.05
57000;BME280;42891;50.006;21.964;2022-09-17T15:00:33;97806.22;;;15.77;59.98
57000;BME280;42891;50.006;21.964;2022-09-17T15:04:34;97826.09;;;15.74;58.86
57000;BME280;42891;50.006;21.964;2022-09-17T15:08:34;97784.13;;;15.76;58.51
57000;BME280;42891;50.006;21.964;2022-09-17T15:12:37;97783.13;;;15.77;58.09
57000;BME280;42891;50.006;21.964;2022-09-17T15:16:38;97783.31;;;15.76;58.72
57000;BME280;42891;50.006;21.964;2022-09-17T15:20:38;97797.44;;;15.76;59.48
57000;BME280;42891;50.006;21.964;2022-09-17T15:29:02;97799.47;;;15.67;59.10
57000;BME280;42891;50.006;21.964;2022-09-17T15:33:08;97800.66;;;15.65;60.32
57000;BME280;42891;50.006;21.964;2022-09-17T15:37:19;97791.44;;;15.61;60.44
57000;BME280;42891;50.006;21.964;2022-09-17T15:41:28;97803.09;;;15.60;60.37
57000;BME280;42891;50.006;21.964;2022-09-17T15:45:30;97792.63;;;15.51;61.59
57000;BME280;42891;50.006;21.964;2022-09-17T15:49:34;97816.00;;;15.63;61.83
57000;BME280;42891;50.006;21.964;2022-09-17T15:53:35;97800.22;;;15.61;63.41
57000;BME280;42891;50.006;21.964;2022-09-17T15:57:35;97813.53;;;15.61;61.33
57000;BME280;42891;50.006;21.964;2022-09-17T16:05:46;97815.94;;;15.49;61.20
57000;BME280;42891;50.006;21.964;2022-09-17T16:09:49;97813.78;;;15.31;61.70
57000;BME280;42891;50.006;21.964;2022-09-17T16:13:51;97824.84;;;15.28;61.30
57000;BME280;42891;50.006;21.964;2022-09-17T16:17:52;97836.03;;;15.24;62.16
57000;BME280;42891;50.006;21.964;2022-09-17T16:21:52;97841.50;;;15.15;61.81
57000;BME280;42891;50.006;21.964;2022-09-17T16:25:53;97844.56;;;15.12;62.11
57000;BME280;42891;50.006;21.964;2022-09-17T16:29:59;97855.31;;;15.04;61.97
57000;BME280;42891;50.006;21.964;2022-09-17T16:34:00;97848.13;;;14.98;63.21
57000;BME280;42891;50.006;21.964;2022-09-17T16:38:01;97846.16;;;15.07;64.35
57000;BME280;42891;50.006;21.964;2022-09-17T16:42:01;97841.97;;;14.97;64.07
57000;BME280;42891;50.006;21.964;2022-09-17T16:46:06;97858.63;;;15.06;65.04
57000;BME280;42891;50.006;21.964;2022-09-17T16:50:13;97861.22;;;14.99;64.34
57000;BME280;42891;50.006;21.964;2022-09-17T16:54:13;97843.69;;;14.83;64.39
57000;BME280;42891;50.006;21.964;2022-09-17T16:58:14;97847.69;;;14.94;63.96
57000;BME280;42891;50.006;21.964;2022-09-17T17:02:14;97828.28;;;14.72;64.06
57000;BME280;42891;50.006;21.964;2022-09-17T17:06:15;97853.34;;;14.85;64.26
57000;BME280;42891;50.006;21.964;2022-09-17T17:10:16;97850.00;;;14.76;64.41
57000;BME280;42891;50.006;21.964;2022-09-17T17:14:16;97849.16;;;14.75;64.69
57000;BME280;42891;50.006;21.964;2022-09-17T17:18:21;97850.00;;;14.76;64.92
57000;BME280;42891;50.006;21.964;2022-09-17T17:22:22;97837.47;;;14.70;65.04
57000;BME280;42891;50.006;21.964;2022-09-17T17:26:22;97827.91;;;14.54;64.88
57000;BME280;42891;50.006;21.964;2022-09-17T17:30:23;97852.59;;;14.69;65.93
57000;BME280;42891;50.006;21.964;2022-09-17T17:34:24;97849.38;;;14.59;66.52
57000;BME280;42891;50.006;21.964;2022-09-17T17:38:24;97841.88;;;14.62;67.15
57000;BME280;42891;50.006;21.964;2022-09-17T17:42:25;97838.75;;;14.59;67.47
57000;BME280;42891;50.006;21.964;2022-09-17T17:46:26;97827.06;;;14.53;67.88
57000;BME280;42891;50.006;21.964;2022-09-17T17:50:26;97835.03;;;14.53;69.10
57000;BME280;42891;50.006;21.964;2022-09-17T17:54:26;97843.56;;;14.48;68.62
57000;BME280;42891;50.006;21.964;2022-09-17T17:58:28;97842.16;;;14.31;67.25
57000;BME280;42891;50.006;21.964;2022-09-17T18:02:29;97839.03;;;14.42;67.84
57000;BME280;42891;50.006;21.964;2022-09-17T18:06:30;97828.94;;;14.38;69.54
57000;BME280;42891;50.006;21.964;2022-09-17T18:10:30;97813.72;;;14.25;70.76
57000;BME280;42891;50.006;21.964;2022-09-17T18:14:30;97808.41;;;14.25;70.58
57000;BME280;42891;50.006;21.964;2022-09-17T18:18:33;97801.56;;;14.15;71.07
57000;BME280;42891;50.006;21.964;2022-09-17T18:22:34;97803.25;;;14.02;70.40
57000;BME280;42891;50.006;21.964;2022-09-17T18:26:34;97801.47;;;14.09;69.61
57000;BME280;42891;50.006;21.964;2022-09-17T18:30:35;97791.94;;;13.93;71.34
57000;BME280;42891;50.006;21.964;2022-09-17T18:34:36;97802.44;;;14.01;72.07
57000;BME280;42891;50.006;21.964;2022-09-17T18:38:36;97796.94;;;14.03;73.09
57000;BME280;42891;50.006;21.964;2022-09-17T18:42:38;97788.63;;;13.91;73.33
57000;BME280;42891;50.006;21.964;2022-09-17T18:46:39;97800.34;;;13.96;73.35
57000;BME280;42891;50.006;21.964;2022-09-17T18:50:41;97801.00;;;13.84;72.70
57000;BME280;42891;50.006;21.964;2022-09-17T18:54:41;97803.56;;;13.92;73.02
57000;BME280;42891;50.006;21.964;2022-09-17T18:58:49;97811.69;;;13.90;74.37
57000;BME280;42891;50.006;21.964;2022-09-17T19:02:50;97816.59;;;13.72;74.25
57000;BME280;42891;50.006;21.964;2022-09-17T19:06:50;97806.19;;;13.70;73.96
57000;BME280;42891;50.006;21.964;2022-09-17T19:10:51;97795.19;;;13.73;74.29
57000;BME280;42891;50.006;21.964;2022-09-17T19:14:51;97796.56;;;13.69;75.76
57000;BME280;42891;50.006;21.964;2022-09-17T19:18:53;97799.84;;;13.71;74.90
57000;BME280;42891;50.006;21.964;2022-09-17T19:22:53;97793.25;;;13.67;74.64
57000;BME280;42891;50.006;21.964;2022-09-17T19:26:53;97791.53;;;13.59;73.01
57000;BME280;42891;50.006;21.964;2022-09-17T19:30:54;97815.22;;;13.76;72.94
57000;BME280;42891;50.006;21.964;2022-09-17T19:34:54;97813.75;;;13.73;72.57
57000;BME280;42891;50.006;21.964;2022-09-17T19:38:54;97795.66;;;13.62;72.99
57000;BME280;42891;50.006;21.964;2022-09-17T19:42:57;97798.13;;;13.78;72.83
57000;BME280;42891;50.006;21.964;2022-09-17T19:46:57;97767.88;;;13.58;72.78
57000;BME280;42891;50.006;21.964;2022-09-17T19:50:58;97806.19;;;13.70;73.13
57000;BME280;42891;50.006;21.964;2022-09-17T19:54:58;97783.41;;;13.61;73.05
57000;BME280;42891;50.006;21.964;2022-09-17T19:58:58;97800.13;;;13.61;73.52
57000;BME280;42891;50.006;21.964;2022-09-17T20:02:59;97791.09;;;13.56;74.75
57000;BME280;42891;50.006;21.964;2022-09-17T20:06:59;97784.59;;;13.58;74.74
57000;BME280;42891;50.006;21.964;2022-09-17T20:11:07;97775.16;;;13.56;74.16
57000;BME280;42891;50.006;21.964;2022-09-17T20:15:08;97791.38;;;13.46;74.05
57000;BME280;42891;50.006;21.964;2022-09-17T20:19:13;97815.03;;;13.47;74.69
57000;BME280;42891;50.006;21.964;2022-09-17T20:23:13;97773.25;;;13.35;75.05
57000;BME280;42891;50.006;21.964;2022-09-17T20:27:13;97788.72;;;13.46;75.27
57000;BME280;42891;50.006;21.964;2022-09-17T20:31:19;97790.38;;;13.47;75.78
57000;BME280;42891;50.006;21.964;2022-09-17T20:35:20;97800.59;;;13.50;75.60
57000;BME280;42891;50.006;21.964;2022-09-17T20:39:20;97803.34;;;13.42;76.00
57000;BME280;42891;50.006;21.964;2022-09-17T20:43:21;97814.22;;;13.47;76.14
57000;BME280;42891;50.006;21.964;2022-09-17T20:47:21;97813.56;;;13.45;76.38
57000;BME280;42891;50.006;21.964;2022-09-17T20:51:23;97802.06;;;13.38;76.51
57000;BME280;42891;50.006;21.964;2022-09-17T20:55:24;97793.41;;;13.44;76.75
57000;BME280;42891;50.006;21.964;2022-09-17T20:59:24;97800.59;;;13.50;76.16
57000;BME280;42891;50.006;21.964;2022-09-17T21:03:28;97785.88;;;13.47;76.27
57000;BME280;42891;50.006;21.964;2022-09-17T21:07:30;97779.56;;;13.49;76.63
57000;BME280;42891;50.006;21.964;2022-09-17T21:11:33;97793.13;;;13.54;76.54
57000;BME280;42891;50.006;21.964;2022-09-17T21:15:33;97754.88;;;13.33;76.41
57000;BME280;42891;50.006;21.964;2022-09-17T21:19:33;97777.28;;;13.45;76.30
57000;BME280;42891;50.006;21.964;2022-09-17T21:23:35;97786.34;;;13.51;76.59
57000;BME280;42891;50.006;21.964;2022-09-17T21:27:38;97758.34;;;13.34;77.07
57000;BME280;42891;50.006;21.964;2022-09-17T21:31:39;97765.03;;;13.44;77.33
57000;BME280;42891;50.006;21.964;2022-09-17T21:35:39;97753.63;;;13.44;77.83
57000;BME280;42891;50.006;21.964;2022-09-17T21:39:39;97755.44;;;13.43;78.19
57000;BME280;42891;50.006;21.964;2022-09-17T21:43:41;97752.59;;;13.45;77.98
57000;BME280;42891;50.006;21.964;2022-09-17T21:47:42;97730.22;;;13.33;78.46
57000;BME280;42891;50.006;21.964;2022-09-17T21:51:42;97744.19;;;13.41;77.77
57000;BME280;42891;50.006;21.964;2022-09-17T21:55:42;97736.97;;;13.35;77.42
57000;BME280;42891;50.006;21.964;2022-09-17T21:59:42;97712.56;;;13.25;77.70
57000;BME280;42891;50.006;21.964;2022-09-17T22:03:43;97721.97;;;13.27;78.65
57000;BME280;42891;50.006;21.964;2022-09-17T22:07:44;97732.19;;;13.30;78.58
57000;BME280;42891;50.006;21.964;2022-09-17T22:11:45;97731.38;;;13.30;78.44
57000;BME280;42891;50.006;21.964;2022-09-17T22:15:54;97696.28;;;13.13;79.03
57000;BME280;42891;50.006;21.964;2022-09-17T22:19:55;97711.09;;;13.22;78.53
57000;BME280;42891;50.006;21.964;2022-09-17T22:23:57;97718.66;;;13.25;78.49
57000;BME280;42891;50.006;21.964;2022-09-17T22:27:58;97711.66;;;13.18;78.68
57000;BME280;42891;50.006;21.964;2022-09-17T22:31:58;97693.38;;;13.08;79.58
57000;BME280;42891;50.006;21.964;2022-09-17T22:36:07;97703.09;;;13.01;80.43
57000;BME280;42891;50.006;21.964;2022-09-17T22:40:08;97699.41;;;13.02;81.04
57000;BME280;42891;50.006;21.964;2022-09-17T22:44:16;97701.97;;;13.10;80.94
57000;BME280;42891;50.006;21.964;2022-09-17T22:48:17;97686.25;;;13.08;81.50
57000;BME280;42891;50.006;21.964;2022-09-17T22:52:17;97682.41;;;13.11;81.61
57000;BME280;42891;50.006;21.964;2022-09-17T22:56:19;97685.53;;;13.15;81.79
57000;BME280;42891;50.006;21.964;2022-09-17T23:00:19;97681.41;;;12.82;82.89
57000;BME280;42891;50.006;21.964;2022-09-17T23:04:20;97690.09;;;12.91;84.22
57000;BME280;42891;50.006;21.964;2022-09-17T23:08:20;97693.84;;;12.82;85.11
57000;BME280;42891;50.006;21.964;2022-09-17T23:12:20;97687.72;;;12.81;86.00
57000;BME280;42891;50.006;21.964;2022-09-17T23:16:21;97691.38;;;12.80;85.82
57000;BME280;42891;50.006;21.964;2022-09-17T23:20:21;97697.31;;;12.82;85.89
57000;BME280;42891;50.006;21.964;2022-09-17T23:24:21;97702.41;;;12.84;86.33
57000;BME280;42891;50.006;21.964;2022-09-17T23:28:22;97694.28;;;12.85;86.50
57000;BME280;42891;50.006;21.964;2022-09-17T23:32:22;97683.63;;;12.78;86.49
57000;BME280;42891;50.006;21.964;2022-09-17T23:36:26;97677.22;;;12.88;85.92
57000;BME280;42891;50.006;21.964;2022-09-17T23:40:26;97662.16;;;12.73;86.61
57000;BME280;42891;50.006;21.964;2022-09-17T23:44:27;97670.72;;;12.90;86.30
57000;BME280;42891;50.006;21.964;2022-09-17T23:48:28;97669.91;;;12.90;86.48